Time;durP1;ratioP1;P1;durP2;ratioP2;P2;SDS_P1;SDS_P2;PMS_P1;PMS_P2;Temp;Humidity;BMP_temperature;BMP_pressure;BME280_temperature;BME280_humidity;BME280_pressure;Samples;Min_cycle;Max_cycle;Signal;HPM_P1;HPM_P2
2022/10/17 00:00:24;;;;;;;25.73;18.48;;;;;;;12.98;100.00;101509.28;5046161;28;20032;-70
2022/10/17 00:02:49;;;;;;;27.83;19.27;;;;;;;12.99;100.00;101505.44;5042361;28;20052;-71
2022/10/17 00:05:14;;;;;;;28.23;18.65;;;;;;;12.99;100.00;101511.78;5041462;28;20063;-70
2022/10/17 00:07:40;;;;;;;28.88;18.27;;;;;;;13.03;100.00;101511.31;5045823;28;20132;-71
2022/10/17 00:10:06;;;;;;;27.27;18.47;;;;;;;13.01;100.00;101508.78;5042530;28;20134;-71
2022/10/17 00:12:32;;;;;;;24.67;17.67;;;;;;;13.03;100.00;101506.66;5028545;28;20778;-71
2022/10/17 00:14:57;;;;;;;27.00;18.63;;;;;;;13.05;100.00;101500.91;5046005;28;20112;-71
2022/10/17 00:17:22;;;;;;;26.65;18.63;;;;;;;13.06;100.00;101497.06;5042482;28;20021;-71
2022/10/17 00:19:48;;;;;;;27.30;18.88;;;;;;;13.09;100.00;101502.13;5039903;28;20376;-71
2022/10/17 00:22:13;;;;;;;29.20;18.55;;;;;;;13.08;100.00;101504.06;5044716;28;20043;-71
2022/10/17 00:24:38;;;;;;;29.27;18.67;;;;;;;13.10;100.00;101490.03;5044328;28;20090;-70
2022/10/17 00:27:04;;;;;;;28.48;19.20;;;;;;;13.11;100.00;101497.22;5045797;28;20673;-70
2022/10/17 00:29:29;;;;;;;28.80;19.75;;;;;;;13.11;100.00;101491.69;5044493;28;20037;-71
2022/10/17 00:31:55;;;;;;;24.35;18.70;;;;;;;13.11;100.00;101492.53;5043859;28;20071;-69
2022/10/17 00:34:20;;;;;;;28.70;18.80;;;;;;;13.10;100.00;101490.03;5042628;28;20032;-71
2022/10/17 00:36:46;;;;;;;29.23;19.83;;;;;;;13.11;100.00;101487.03;5043187;28;20021;-71
2022/10/17 00:39:11;;;;;;;29.75;19.00;;;;;;;13.13;100.00;101484.91;5040709;28;20170;-69
2022/10/17 00:41:36;;;;;;;26.95;17.98;;;;;;;13.12;100.00;101476.84;5043377;28;20799;-71
2022/10/17 00:44:26;;;;;;;30.13;18.90;;;;;;;13.11;100.00;101476.00;5042613;28;20041;-70
2022/10/17 00:46:51;;;;;;;25.60;19.20;;;;;;;13.10;100.00;101473.47;5043022;28;20033;-71
2022/10/17 00:49:18;;;;;;;28.20;18.65;;;;;;;13.10;100.00;101479.00;5044577;28;20029;-71
2022/10/17 00:51:48;;;;;;;28.33;19.15;;;;;;;13.11;100.00;101476.00;5045565;28;20068;-71
2022/10/17 00:54:16;;;;;;;29.73;19.95;;;;;;;13.13;100.00;101478.53;5048678;28;20025;-70
2022/10/17 00:56:42;;;;;;;32.92;20.42;;;;;;;13.12;100.00;101490.63;5047477;28;20040;-71
2022/10/17 00:59:10;;;;;;;28.67;20.05;;;;;;;13.11;100.00;101483.44;5045813;28;20037;-71
2022/10/17 01:01:36;;;;;;;30.70;19.88;;;;;;;13.09;100.00;101483.66;5049900;28;20044;-71
2022/10/17 01:04:01;;;;;;;27.05;19.23;;;;;;;13.12;100.00;101482.34;5079600;22;20057;-71
2022/10/17 01:06:26;;;;;;;29.92;20.30;;;;;;;13.12;100.00;101480.44;5024764;28;20032;-71
2022/10/17 01:08:52;;;;;;;30.50;19.48;;;;;;;13.13;100.00;101479.38;5028393;28;20056;-71
2022/10/17 01:11:42;;;;;;;34.28;20.75;;;;;;;13.16;100.00;101478.06;5027383;28;20607;-71
2022/10/17 01:14:26;;;;;;;30.80;19.98;;;;;;;13.15;100.00;101466.19;5027572;28;20028;-71
2022/10/17 01:16:59;;;;;;;32.22;20.00;;;;;;;13.20;100.00;101465.50;5027807;28;20030;-71
2022/10/17 01:20:00;;;;;;;32.20;21.15;;;;;;;13.23;100.00;101467.81;5026753;28;20025;-70
2022/10/17 01:22:40;;;;;;;33.50;21.90;;;;;;;13.28;100.00;101465.22;4966311;28;20046;-71
2022/10/17 01:25:17;;;;;;;34.85;22.15;;;;;;;13.33;100.00;101473.63;5019471;28;20659;-71
2022/10/17 01:28:05;;;;;;;34.72;20.95;;;;;;;13.36;100.00;101477.81;5028846;28;20037;-69
2022/10/17 01:30:58;;;;;;;34.45;22.58;;;;;;;13.39;100.00;101469.94;5028021;28;20041;-71
2022/10/17 01:33:51;;;;;;;36.67;22.75;;;;;;;13.44;100.00;101475.59;5022975;28;20502;-70
2022/10/17 01:36:26;;;;;;;41.47;23.65;;;;;;;13.46;100.00;101461.53;5014886;28;20359;-71
2022/10/17 01:39:14;;;;;;;41.80;23.38;;;;;;;13.50;100.00;101463.59;5026569;28;20018;-71
2022/10/17 01:41:50;;;;;;;42.78;24.55;;;;;;;13.57;100.00;101469.00;5026164;28;20152;-70
2022/10/17 01:44:38;;;;;;;44.85;25.45;;;;;;;13.57;100.00;101457.13;5026957;28;20467;-69
2022/10/17 01:47:07;;;;;;;42.60;25.23;;;;;;;13.64;100.00;101455.13;5025678;28;20072;-68
2022/10/17 01:49:34;;;;;;;42.53;23.88;;;;;;;13.62;100.00;101454.50;5022922;28;20345;-71
2022/10/17 01:52:05;;;;;;;45.92;25.92;;;;;;;13.66;100.00;101459.31;5019280;28;20120;-71
2022/10/17 01:54:31;;;;;;;50.47;26.55;;;;;;;13.68;100.00;101456.31;5025930;28;20499;-71
2022/10/17 01:57:01;;;;;;;43.87;25.57;;;;;;;13.67;100.00;101451.88;5023399;28;20033;-70
2022/10/17 01:59:37;;;;;;;45.10;26.70;;;;;;;13.68;100.00;101459.91;5027844;28;20032;-70
2022/10/17 02:02:05;;;;;;;44.67;25.48;;;;;;;13.69;100.00;101461.63;5023630;28;20025;-70
2022/10/17 02:04:30;;;;;;;45.90;24.77;;;;;;;13.72;100.00;101474.94;5024940;28;20050;-71
2022/10/17 02:06:55;;;;;;;41.63;26.35;;;;;;;13.73;100.00;101457.28;5025249;28;20288;-71
2022/10/17 02:09:25;;;;;;;46.65;25.90;;;;;;;13.71;100.00;101464.97;5023723;28;20690;-68
2022/10/17 02:12:15;;;;;;;40.00;24.70;;;;;;;13.77;100.00;101463.19;5026971;28;20029;-72
2022/10/17 02:15:02;;;;;;;41.90;23.38;;;;;;;13.76;100.00;101450.47;5023547;28;20472;-71
2022/10/17 02:17:52;;;;;;;33.35;21.42;;;;;;;13.73;100.00;101450.91;5024196;28;20439;-71
2022/10/17 02:20:39;;;;;;;31.95;21.67;;;;;;;13.76;100.00;101447.69;5027468;28;20033;-68
2022/10/17 02:23:14;;;;;;;29.30;19.60;;;;;;;13.77;100.00;101452.97;5026263;28;20075;-69
2022/10/17 02:25:56;;;;;;;26.17;19.55;;;;;;;13.80;100.00;101448.91;5026309;28;20296;-70
2022/10/17 02:28:31;;;;;;;27.73;19.42;;;;;;;13.76;100.00;101444.94;5024367;28;20447;-71
2022/10/17 02:31:14;;;;;;;23.05;17.00;;;;;;;13.72;100.00;101450.09;5017976;28;20664;-71
2022/10/17 02:34:05;;;;;;;21.10;16.48;;;;;;;13.69;100.00;101442.31;5024987;28;20041;-70
2022/10/17 02:36:41;;;;;;;23.15;15.77;;;;;;;13.69;100.00;101449.75;5012537;28;20040;-71
2022/10/17 02:39:08;;;;;;;20.38;15.77;;;;;;;13.66;100.00;101448.28;5025923;28;20120;-69
2022/10/17 02:41:36;;;;;;;20.42;15.75;;;;;;;13.68;100.00;101448.03;5024723;28;20133;-70
2022/10/17 02:44:03;;;;;;;21.38;15.52;;;;;;;13.65;100.00;101451.28;5025980;28;20056;-70
2022/10/17 02:46:30;;;;;;;18.55;15.35;;;;;;;13.68;100.00;101448.03;5025339;28;20464;-71
2022/10/17 02:49:06;;;;;;;17.98;14.40;;;;;;;13.67;100.00;101443.59;5025846;28;20112;-70
2022/10/17 02:51:43;;;;;;;19.42;15.23;;;;;;;13.67;100.00;101449.13;5016190;28;20029;-71
2022/10/17 02:54:17;;;;;;;16.42;14.20;;;;;;;13.68;100.00;101443.34;5025490;28;20851;-71
2022/10/17 02:56:50;;;;;;;17.23;14.57;;;;;;;13.68;100.00;101445.28;5025749;28;20032;-71
2022/10/17 02:59:19;;;;;;;17.80;14.90;;;;;;;13.70;100.00;101446.72;5027504;28;20598;-71
2022/10/17 03:01:45;;;;;;;21.17;14.63;;;;;;;13.71;100.00;101442.06;5026254;28;20135;-71
2022/10/17 03:04:13;;;;;;;17.20;13.63;;;;;;;13.70;100.00;101451.41;5025265;28;20121;-71
2022/10/17 03:06:40;;;;;;;16.08;14.35;;;;;;;13.72;100.00;101443.72;5025276;28;20143;-72
2022/10/17 03:09:06;;;;;;;15.40;13.25;;;;;;;13.78;100.00;101445.53;5022927;28;20468;-71
2022/10/17 03:11:31;;;;;;;19.35;14.60;;;;;;;13.78;100.00;101440.00;5025961;28;20115;-71
2022/10/17 03:13:56;;;;;;;17.08;13.90;;;;;;;13.80;100.00;101440.63;5025228;28;20468;-70
2022/10/17 03:16:22;;;;;;;17.13;14.20;;;;;;;13.84;100.00;101439.09;5022665;28;20053;-71
2022/10/17 03:18:47;;;;;;;16.70;13.68;;;;;;;13.85;100.00;101439.94;5026836;28;20113;-71
2022/10/17 03:21:12;;;;;;;18.88;14.40;;;;;;;13.88;100.00;101442.19;5025801;28;20069;-70
2022/10/17 03:23:37;;;;;;;15.48;13.68;;;;;;;13.94;100.00;101436.56;5024105;28;20141;-71
2022/10/17 03:26:04;;;;;;;17.02;13.98;;;;;;;14.01;100.00;101431.75;5021877;28;20030;-71
2022/10/17 03:28:29;;;;;;;17.23;13.85;;;;;;;14.06;100.00;101433.81;5019780;28;20033;-71
2022/10/17 03:30:55;;;;;;;17.08;14.13;;;;;;;14.13;100.00;101425.41;5024422;28;20026;-70
2022/10/17 03:33:20;;;;;;;17.92;13.88;;;;;;;14.18;100.00;101442.09;5024834;28;20112;-71
2022/10/17 03:35:45;;;;;;;17.00;13.77;;;;;;;14.22;100.00;101446.91;5023600;28;20373;-67
2022/10/17 03:38:10;;;;;;;16.02;14.15;;;;;;;14.26;100.00;101437.06;5023756;28;20319;-71
2022/10/17 03:40:36;;;;;;;16.70;14.18;;;;;;;14.31;100.00;101429.97;5025738;28;20095;-71
2022/10/17 03:43:01;;;;;;;16.52;14.70;;;;;;;14.38;100.00;101442.56;5024065;28;20033;-71
2022/10/17 03:45:26;;;;;;;17.92;14.00;;;;;;;14.41;100.00;101442.09;5025200;28;20043;-71
2022/10/17 03:47:51;;;;;;;19.05;14.15;;;;;;;14.41;100.00;101436.56;5022648;28;20041;-71
2022/10/17 03:50:17;;;;;;;19.63;14.32;;;;;;;14.45;100.00;101439.69;5025579;28;20104;-70
2022/10/17 03:52:46;;;;;;;17.98;13.50;;;;;;;14.47;100.00;101432.88;5022973;28;20431;-70
2022/10/17 03:55:11;;;;;;;16.55;14.07;;;;;;;14.48;100.00;101425.41;5023947;28;20126;-71
2022/10/17 03:57:37;;;;;;;18.95;14.75;;;;;;;14.51;100.00;101430.47;5024148;28;20539;-70
2022/10/17 04:00:04;;;;;;;18.42;14.32;;;;;;;14.54;100.00;101441.84;5024897;28;20113;-71
2022/10/17 04:02:29;;;;;;;18.85;14.48;;;;;;;14.58;100.00;101435.84;5024211;28;20076;-70
2022/10/17 04:04:54;;;;;;;18.30;13.98;;;;;;;14.58;100.00;101438.63;5024529;28;20095;-71
2022/10/17 04:07:19;;;;;;;17.63;13.77;;;;;;;14.59;100.00;101441.13;5025444;28;20051;-71
2022/10/17 04:09:45;;;;;;;17.00;13.18;;;;;;;14.58;100.00;101446.91;5023305;28;20044;-70
2022/10/17 04:12:10;;;;;;;18.92;13.93;;;;;;;14.61;100.00;101454.72;5025277;28;20091;-71
2022/10/17 04:14:37;;;;;;;18.80;14.68;;;;;;;14.62;100.00;101445.34;5024840;28;20029;-71
2022/10/17 04:17:02;;;;;;;20.05;14.45;;;;;;;14.64;100.00;101455.06;5024583;28;20113;-71
2022/10/17 04:19:28;;;;;;;19.48;14.00;;;;;;;14.67;100.00;101445.47;5023017;28;20120;-68
2022/10/17 04:21:53;;;;;;;19.10;13.70;;;;;;;14.73;100.00;101458.31;5024293;28;20195;-70
2022/10/17 04:24:18;;;;;;;17.73;15.07;;;;;;;14.75;100.00;101464.41;5022341;28;20525;-69
2022/10/17 04:26:44;;;;;;;17.27;13.40;;;;;;;14.77;100.00;101457.56;5024478;28;20048;-71
2022/10/17 04:29:10;;;;;;;16.88;13.23;;;;;;;14.77;100.00;101467.78;5028160;28;20041;-71
2022/10/17 04:31:35;;;;;;;19.38;13.73;;;;;;;14.77;100.00;101470.56;5025735;28;20029;-71
2022/10/17 04:34:00;;;;;;;16.25;13.65;;;;;;;14.76;100.00;101469.72;5027218;28;20551;-70
2022/10/17 04:36:26;;;;;;;20.02;13.60;;;;;;;14.86;100.00;101482.09;5026958;28;20029;-69
2022/10/17 04:38:51;;;;;;;16.48;13.50;;;;;;;14.90;100.00;101473.06;5028163;28;20037;-70
2022/10/17 04:41:18;;;;;;;17.38;13.48;;;;;;;14.92;100.00;101470.03;5029190;28;20121;-71
2022/10/17 04:43:44;;;;;;;16.13;13.27;;;;;;;14.92;100.00;101476.41;5026762;28;20490;-70
2022/10/17 04:46:12;;;;;;;19.88;13.50;;;;;;;14.95;100.00;101497.19;5016708;28;20121;-71
2022/10/17 04:48:39;;;;;;;17.08;12.75;;;;;;;14.99;100.00;101496.47;5025787;28;20053;-71
2022/10/17 04:51:07;;;;;;;22.00;13.90;;;;;;;14.99;100.00;101503.94;5028471;28;20029;-70
2022/10/17 04:53:35;;;;;;;18.38;12.85;;;;;;;14.99;100.00;101495.63;5027393;28;20418;-71
2022/10/17 04:56:01;;;;;;;18.63;13.35;;;;;;;15.04;100.00;101502.09;5023006;28;20050;-70
2022/10/17 04:58:28;;;;;;;17.58;12.95;;;;;;;15.04;100.00;101501.28;5028425;28;20037;-70
2022/10/17 05:00:54;;;;;;;18.40;12.70;;;;;;;15.05;100.00;101503.81;5028402;28;20475;-70
2022/10/17 05:03:19;;;;;;;19.15;13.00;;;;;;;15.05;100.00;101508.47;5025834;28;20037;-70
2022/10/17 05:05:44;;;;;;;17.30;12.30;;;;;;;15.05;100.00;101503.81;5025535;28;20018;-68
2022/10/17 05:08:10;;;;;;;17.67;13.18;;;;;;;15.10;100.00;101507.75;5025334;28;20331;-70
2022/10/17 05:10:40;;;;;;;16.08;13.00;;;;;;;15.10;100.00;101508.59;5028616;28;20026;-71
2022/10/17 05:13:06;;;;;;;19.10;12.25;;;;;;;15.21;100.00;101502.19;5028726;28;20116;-70
2022/10/17 05:15:31;;;;;;;17.40;11.93;;;;;;;15.24;100.00;101506.38;5028953;28;20104;-70
2022/10/17 05:17:57;;;;;;;16.00;12.15;;;;;;;15.28;100.00;101496.53;5027881;28;20026;-71
2022/10/17 05:20:23;;;;;;;16.42;11.93;;;;;;;15.28;100.00;101485.44;5028074;28;20041;-71
2022/10/17 05:22:48;;;;;;;20.00;12.57;;;;;;;15.31;100.00;101507.94;5028658;28;20108;-68
2022/10/17 05:25:13;;;;;;;15.27;12.35;;;;;;;15.33;100.00;101504.91;5028571;28;20132;-71
2022/10/17 05:27:39;;;;;;;19.35;12.93;;;;;;;15.31;100.00;101509.88;5026969;28;20095;-68
2022/10/17 05:30:05;;;;;;;15.20;11.82;;;;;;;15.30;100.00;101517.31;5028260;28;20113;-72
2022/10/17 05:32:30;;;;;;;18.23;12.30;;;;;;;15.34;100.00;101525.97;5027820;28;20030;-71
2022/10/17 05:34:55;;;;;;;23.02;13.48;;;;;;;15.34;100.00;101516.81;5028103;28;20025;-70
2022/10/17 05:37:21;;;;;;;17.67;12.18;;;;;;;15.36;100.00;101517.41;5028146;28;20471;-70
2022/10/17 05:39:46;;;;;;;17.15;11.90;;;;;;;15.36;100.00;101521.06;5027805;28;20421;-72
2022/10/17 05:42:11;;;;;;;16.13;12.30;;;;;;;15.36;100.00;101523.81;5028447;28;20037;-71
2022/10/17 05:44:38;;;;;;;17.08;12.38;;;;;;;15.34;100.00;101528.75;5028093;28;20033;-72
2022/10/17 05:47:03;;;;;;;18.95;13.65;;;;;;;15.30;100.00;101524.78;5027273;28;20073;-71
2022/10/17 05:49:29;;;;;;;16.75;12.65;;;;;;;15.31;100.00;101524.56;5028433;28;20084;-72
2022/10/17 05:51:54;;;;;;;22.00;13.00;;;;;;;15.32;100.00;101526.22;5027032;28;20109;-71
2022/10/17 05:54:19;;;;;;;17.05;12.23;;;;;;;15.34;100.00;101530.66;5010206;28;20460;-71
2022/10/17 05:56:44;;;;;;;19.93;13.03;;;;;;;15.35;100.00;101529.56;5028347;28;20038;-69
2022/10/17 05:59:10;;;;;;;15.63;11.93;;;;;;;15.39;100.00;101541.84;5027885;28;20312;-71
2022/10/17 06:01:35;;;;;;;16.20;12.27;;;;;;;15.41;100.00;101534.13;5027168;28;20419;-72
2022/10/17 06:04:00;;;;;;;17.00;12.45;;;;;;;15.43;100.00;101535.56;5027321;28;20483;-71
2022/10/17 06:06:25;;;;;;;17.38;12.52;;;;;;;15.45;100.00;101535.31;5027539;28;20040;-72
2022/10/17 06:08:51;;;;;;;17.75;12.63;;;;;;;15.48;100.00;101532.06;5015986;28;20752;-72
2022/10/17 06:11:16;;;;;;;15.13;13.20;;;;;;;15.51;100.00;101537.09;5027834;28;20667;-71
2022/10/17 06:13:41;;;;;;;18.35;12.52;;;;;;;15.52;100.00;101533.25;5027854;28;20033;-72
2022/10/17 06:16:07;;;;;;;18.17;12.43;;;;;;;15.55;100.00;101532.75;5026882;28;20033;-69
2022/10/17 06:18:32;;;;;;;16.88;11.90;;;;;;;15.58;100.00;101535.03;5027961;28;20029;-71
2022/10/17 06:21:06;;;;;;;20.15;13.32;;;;;;;15.57;100.00;101541.66;5027170;28;20030;-73
2022/10/17 06:23:32;;;;;;;16.38;12.57;;;;;;;15.57;100.00;101536.13;5027469;28;20146;-72
2022/10/17 06:26:02;;;;;;;18.02;11.98;;;;;;;15.60;100.00;101538.38;5027208;28;20116;-70
2022/10/17 06:28:27;;;;;;;15.90;12.50;;;;;;;15.62;100.00;101546.47;5027568;28;20029;-73
2022/10/17 06:30:52;;;;;;;16.15;10.95;;;;;;;15.62;100.00;101541.75;5026595;28;20079;-73
2022/10/17 06:33:19;;;;;;;19.00;12.15;;;;;;;15.65;100.00;101545.97;5027746;28;20529;-72
2022/10/17 06:35:50;;;;;;;17.52;12.25;;;;;;;15.64;100.00;101550.69;5027692;28;20084;-72
2022/10/17 06:38:15;;;;;;;16.77;12.18;;;;;;;15.63;100.00;101539.84;5028371;28;20023;-73
2022/10/17 06:40:41;;;;;;;15.95;12.43;;;;;;;15.67;100.00;101546.59;5027493;28;20415;-72
2022/10/17 06:43:06;;;;;;;17.50;12.32;;;;;;;15.69;100.00;101544.41;5027621;28;20033;-73
2022/10/17 06:45:31;;;;;;;18.17;13.10;;;;;;;15.72;100.00;101553.06;5027699;28;20029;-74
2022/10/17 06:47:56;;;;;;;17.13;12.60;;;;;;;15.77;100.00;101550.41;5026563;28;20361;-74
2022/10/17 06:50:22;;;;;;;16.63;12.13;;;;;;;15.83;100.00;101556.88;5027019;28;20037;-71
2022/10/17 06:52:50;;;;;;;17.85;12.80;;;;;;;15.86;100.00;101564.66;5026379;28;20468;-72
2022/10/17 06:55:15;;;;;;;18.45;12.02;;;;;;;15.92;100.00;101576.72;5025421;28;20049;-71
2022/10/17 06:57:41;;;;;;;18.55;12.60;;;;;;;15.97;100.00;101574.88;5025608;28;20538;-71
2022/10/17 07:00:06;;;;;;;19.25;12.63;;;;;;;16.01;100.00;101576.03;5025000;28;20522;-72
2022/10/17 07:02:32;;;;;;;16.33;12.13;;;;;;;16.05;100.00;101568.91;5024411;28;20038;-72
2022/10/17 07:04:57;;;;;;;20.10;11.30;;;;;;;16.09;100.00;101570.09;5026542;28;20044;-72
2022/10/17 07:07:22;;;;;;;16.55;11.32;;;;;;;16.12;100.00;101566.00;5025470;28;20294;-72
2022/10/17 07:09:47;;;;;;;15.98;12.23;;;;;;;16.15;100.00;101561.88;5025495;28;20436;-72
2022/10/17 07:12:13;;;;;;;19.67;11.48;;;;;;;16.19;100.00;101565.81;5024825;28;20044;-72
2022/10/17 07:14:38;;;;;;;17.13;11.60;;;;;;;16.23;100.00;101570.63;5024927;28;20076;-72
2022/10/17 07:17:03;;;;;;;15.80;10.75;;;;;;;16.28;100.00;101572.63;5023738;28;20041;-71
2022/10/17 07:19:29;;;;;;;17.00;11.90;;;;;;;16.29;100.00;101577.91;5025345;28;20128;-70
2022/10/17 07:21:54;;;;;;;15.25;10.70;;;;;;;16.31;100.00;101583.22;5023749;28;20048;-69
2022/10/17 07:24:20;;;;;;;16.15;10.57;;;;;;;16.35;100.00;101578.84;5024318;28;20111;-72
2022/10/17 07:26:45;;;;;;;12.85;10.18;;;;;;;16.36;100.00;101574.97;5024976;28;20494;-72
2022/10/17 07:29:10;;;;;;;16.45;10.52;;;;;;;16.34;100.00;101591.88;5024251;28;20058;-72
2022/10/17 07:31:36;;;;;;;16.02;10.45;;;;;;;16.35;100.00;101592.72;5026106;28;20029;-72
2022/10/17 07:34:01;;;;;;;13.55;10.18;;;;;;;16.38;100.00;101606.09;5026707;28;20030;-74
2022/10/17 07:36:27;;;;;;;14.43;9.88;;;;;;;16.41;100.00;101604.72;5026348;28;20101;-71
2022/10/17 07:38:52;;;;;;;13.85;10.52;;;;;;;16.43;100.00;101614.50;5025155;28;20080;-73
2022/10/17 07:41:18;;;;;;;14.35;10.38;;;;;;;16.45;100.00;101633.63;5027408;28;20032;-71
2022/10/17 07:43:44;;;;;;;14.70;10.27;;;;;;;16.43;100.00;101674.66;5027520;28;20025;-71
2022/10/17 07:46:10;;;;;;;16.23;10.20;;;;;;;16.43;100.00;101692.13;5025641;28;20468;-72
2022/10/17 07:48:36;;;;;;;16.63;10.15;;;;;;;16.45;100.00;101711.28;5027133;28;20025;-73
2022/10/17 07:51:04;;;;;;;14.95;9.88;;;;;;;16.45;100.00;101722.38;5022289;28;20120;-70
2022/10/17 07:53:29;;;;;;;14.88;10.43;;;;;;;16.45;100.00;101730.69;5020211;28;20049;-72
2022/10/17 07:55:54;;;;;;;15.45;9.70;;;;;;;16.43;100.00;101755.91;5026454;28;20036;-74
2022/10/17 07:58:20;;;;;;;14.20;9.20;;;;;;;16.42;100.00;101745.03;5026945;28;20034;-74
2022/10/17 08:00:47;;;;;;;19.65;11.45;;;;;;;16.33;100.00;101739.91;5026077;28;20029;-70
2022/10/17 08:03:13;;;;;;;20.90;11.27;;;;;;;16.13;100.00;101731.19;5030128;28;20029;-72
2022/10/17 08:05:38;;;;;;;16.77;10.57;;;;;;;16.11;100.00;101732.50;5030500;28;20439;-72
2022/10/17 08:08:04;;;;;;;15.93;10.57;;;;;;;16.01;100.00;101720.09;5028779;28;20026;-74
2022/10/17 08:10:29;;;;;;;15.95;11.23;;;;;;;15.95;100.00;101721.09;5012782;28;20473;-72
2022/10/17 08:12:56;;;;;;;15.57;10.73;;;;;;;15.95;100.00;101723.88;5009180;28;20092;-73
2022/10/17 08:15:22;;;;;;;19.53;11.60;;;;;;;15.90;100.00;101731.25;5010925;28;20121;-74
2022/10/17 08:17:47;;;;;;;20.83;12.77;;;;;;;15.87;100.00;101710.41;5014057;28;20033;-72
2022/10/17 08:20:13;;;;;;;19.67;12.10;;;;;;;15.89;100.00;101724.84;5011590;28;20044;-72
2022/10/17 08:22:38;;;;;;;19.95;11.68;;;;;;;15.90;100.00;101736.78;5029461;28;20033;-73
2022/10/17 08:25:04;;;;;;;17.92;12.05;;;;;;;15.90;100.00;101767.25;5009710;28;20467;-74
2022/10/17 08:27:31;;;;;;;18.02;11.50;;;;;;;15.88;100.00;101795.22;5022283;28;20061;-73
2022/10/17 08:29:56;;;;;;;20.27;12.35;;;;;;;16.00;100.00;101818.19;5027182;28;20422;-72
2022/10/17 08:32:25;;;;;;;20.83;11.50;;;;;;;15.93;100.00;101825.81;5027376;28;20112;-72
2022/10/17 08:34:54;;;;;;;19.13;12.18;;;;;;;15.91;100.00;101819.63;5028560;28;20359;-73
2022/10/17 08:37:20;;;;;;;21.45;12.15;;;;;;;15.89;100.00;101796.03;5029044;28;20025;-71
2022/10/17 08:39:47;;;;;;;17.73;12.98;;;;;;;15.88;100.00;101786.06;5029904;28;20025;-70
2022/10/17 08:42:46;;;;;;;18.45;12.23;;;;;;;15.90;100.00;101798.56;5028002;28;20418;-71
2022/10/17 08:45:33;;;;;;;18.10;13.05;;;;;;;15.88;100.00;101789.66;5028754;28;20438;-72
2022/10/17 08:48:01;;;;;;;16.75;11.68;;;;;;;15.85;100.00;101786.53;5029341;28;20033;-74
2022/10/17 08:50:39;;;;;;;16.83;12.35;;;;;;;15.87;100.00;101782.44;5028542;28;20029;-71
2022/10/17 08:53:33;;;;;;;19.63;12.48;;;;;;;15.91;100.00;101794.72;5027526;28;20025;-72
2022/10/17 08:56:09;;;;;;;19.13;12.95;;;;;;;15.87;100.00;101787.16;5019107;28;20523;-72
2022/10/17 08:58:35;;;;;;;20.98;13.40;;;;;;;15.90;100.00;101776.41;5029043;28;20033;-72
2022/10/17 09:01:19;;;;;;;24.35;13.55;;;;;;;15.91;100.00;101793.88;5027614;28;20041;-72
2022/10/17 09:04:08;;;;;;;23.17;13.88;;;;;;;15.90;100.00;101787.47;5028772;28;20069;-72
2022/10/17 09:06:38;;;;;;;18.48;13.45;;;;;;;15.94;100.00;101787.84;5028123;28;20113;-71
2022/10/17 09:09:18;;;;;;;19.45;13.55;;;;;;;15.95;100.00;101776.50;5028843;28;20125;-71
2022/10/17 09:11:53;;;;;;;18.33;12.95;;;;;;;15.95;100.00;101784.81;5025346;28;20099;-72
2022/10/17 09:14:52;;;;;;;19.20;13.00;;;;;;;15.97;100.00;101806.78;5028227;28;20017;-68
2022/10/17 09:17:48;;;;;;;20.98;13.98;;;;;;;15.96;100.00;101821.69;5028088;28;20040;-73
2022/10/17 09:20:22;;;;;;;16.83;12.55;;;;;;;15.96;100.00;101838.31;5028211;28;20025;-69
2022/10/17 09:22:57;;;;;;;20.85;14.45;;;;;;;15.94;100.00;101843.25;5028525;28;20400;-72
2022/10/17 09:25:23;;;;;;;27.02;13.73;;;;;;;15.92;100.00;101864.84;5027484;28;20042;-71
2022/10/17 09:27:58;;;;;;;19.17;12.40;;;;;;;15.91;100.00;101858.44;5026105;28;20031;-70
2022/10/17 09:30:32;;;;;;;19.33;13.75;;;;;;;15.92;100.00;101850.97;5025887;28;20034;-72
2022/10/17 09:32:57;;;;;;;20.55;13.48;;;;;;;15.90;100.00;101825.44;5027780;28;20022;-70
2022/10/17 09:35:26;;;;;;;24.38;14.20;;;;;;;15.88;100.00;101797.97;5027435;28;20143;-70
2022/10/17 09:37:52;;;;;;;19.88;12.38;;;;;;;15.87;100.00;101771.38;5024483;28;20087;-71
2022/10/17 09:40:26;;;;;;;18.77;13.50;;;;;;;15.89;100.00;101758.09;5027698;28;20029;-69
2022/10/17 09:42:52;;;;;;;19.65;13.40;;;;;;;15.94;100.00;101760.16;5025374;28;20176;-70
2022/10/17 09:45:24;;;;;;;21.67;13.45;;;;;;;15.96;100.00;101767.09;5027429;28;20120;-72
2022/10/17 09:48:02;;;;;;;18.75;13.20;;;;;;;15.99;100.00;101780.47;5027012;28;20030;-70
2022/10/17 09:50:30;;;;;;;19.47;13.83;;;;;;;16.00;100.00;101807.09;5026054;28;20333;-69
2022/10/17 09:53:01;;;;;;;21.63;14.32;;;;;;;15.97;100.00;101827.00;5026927;28;20029;-71
2022/10/17 09:55:47;;;;;;;19.77;14.18;;;;;;;15.98;100.00;101848.06;5024535;28;20026;-72
2022/10/17 09:58:12;;;;;;;19.05;13.30;;;;;;;15.97;100.00;101818.69;5026333;28;20094;-74
2022/10/17 10:00:40;;;;;;;20.52;14.00;;;;;;;15.97;100.00;101815.91;5026786;28;20761;-70
2022/10/17 10:03:21;;;;;;;22.90;13.77;;;;;;;16.01;100.00;101806.00;5027892;28;20434;-73
2022/10/17 10:06:00;;;;;;;18.67;12.95;;;;;;;16.05;100.00;101787.81;5018592;28;20037;-74
2022/10/17 10:08:47;;;;;;;21.23;15.45;;;;;;;16.07;100.00;101802.28;5026594;28;20029;-74
2022/10/17 10:11:13;;;;;;;21.33;14.48;;;;;;;16.11;100.00;101805.41;5025142;28;20037;-72
2022/10/17 10:13:38;;;;;;;26.48;14.30;;;;;;;16.14;100.00;101804.06;5026666;28;20045;-71
2022/10/17 10:16:14;;;;;;;21.33;13.80;;;;;;;16.14;100.00;101818.78;5026231;28;20037;-71
2022/10/17 10:18:40;;;;;;;19.67;13.10;;;;;;;16.15;100.00;101823.22;5026918;28;20030;-72
2022/10/17 10:21:11;;;;;;;21.45;14.23;;;;;;;16.18;100.00;101825.53;5025154;28;20035;-70
2022/10/17 10:23:42;;;;;;;23.85;14.45;;;;;;;16.20;100.00;101834.41;5015337;28;21848;-71
2022/10/17 10:26:22;;;;;;;21.67;15.00;;;;;;;16.19;100.00;101829.97;5022344;28;20032;-71
2022/10/17 10:29:29;;;;;;;24.33;14.90;;;;;;;16.25;100.00;101844.78;5024415;28;20424;-71
2022/10/17 10:32:06;;;;;;;20.20;14.30;;;;;;;16.29;100.00;101857.06;5026266;28;20064;-71
2022/10/17 10:34:34;;;;;;;21.13;14.05;;;;;;;16.32;100.00;101856.56;5026645;28;20125;-71
2022/10/17 10:37:14;;;;;;;;;;;;;;;16.38;100.00;101874.19;5020579;28;20033;-74
2022/10/17 10:39:52;;;;;;;21.30;14.80;;;;;;;16.39;100.00;101873.09;5025073;28;19921;-72
2022/10/17 10:42:36;;;;;;;26.70;16.08;;;;;;;16.42;100.00;101880.91;5027253;28;20861;-71
2022/10/17 10:45:12;;;;;;;23.13;15.77;;;;;;;16.42;100.00;101886.44;5024930;28;20505;-71
2022/10/17 10:47:38;;;;;;;23.30;15.32;;;;;;;16.39;100.00;101889.72;5013438;28;20972;-72
2022/10/17 10:50:23;;;;;;;20.38;14.07;;;;;;;16.39;100.00;101898.88;5026475;28;20024;-72
2022/10/17 10:52:56;;;;;;;22.08;15.20;;;;;;;16.41;100.00;101902.25;5025575;28;20021;-69
2022/10/17 10:55:33;;;;;;;19.20;14.93;;;;;;;16.38;100.00;101911.06;5024204;28;20380;-71
2022/10/17 10:58:31;;;;;;;20.03;15.40;;;;;;;16.41;100.00;101915.25;5023020;28;20037;-69
2022/10/17 11:01:01;;;;;;;20.55;14.68;;;;;;;16.37;100.00;101937.06;4999209;28;20060;-72
2022/10/17 11:03:41;;;;;;;19.35;13.65;;;;;;;16.34;100.00;101924.56;5012626;28;20444;-69
2022/10/17 11:06:21;;;;;;;21.02;14.00;;;;;;;16.32;100.00;101923.09;5025770;28;20036;-72
2022/10/17 11:08:51;;;;;;;18.20;13.63;;;;;;;16.31;100.00;101926.97;5024477;28;20052;-72
2022/10/17 11:11:26;;;;;;;20.02;13.38;;;;;;;16.30;100.00;101925.28;5024781;28;20072;-73
2022/10/17 11:14:09;;;;;;;20.05;13.60;;;;;;;16.31;100.00;101929.72;5026331;28;20044;-74